createdAt,value
2022-11-24T00:00:47.364Z,0.04
2022-11-24T00:03:20.393Z,0.04
2022-11-24T00:05:52.111Z,0.03
2022-11-24T00:08:24.892Z,0.03
2022-11-24T00:10:56.402Z,0.02
2022-11-24T00:13:28.800Z,0.02
2022-11-24T00:16:13.495Z,-0.01
2022-11-24T00:18:49.251Z,-0.01
2022-11-24T00:21:23.701Z,-0.00
2022-11-24T00:23:55.935Z,-0.00
2022-11-24T00:26:29.366Z,-0.02
2022-11-24T00:29:03.515Z,-0.03
2022-11-24T00:31:36.708Z,-0.04
2022-11-24T00:34:11.925Z,-0.04
2022-11-24T00:36:43.122Z,-0.00
2022-11-24T00:39:17.686Z,0.02
2022-11-24T00:41:49.687Z,0.04
2022-11-24T00:44:21.272Z,0.06
2022-11-24T00:46:52.790Z,0.08
2022-11-24T00:49:24.604Z,0.08
2022-11-24T00:51:56.758Z,0.08
2022-11-24T00:54:28.911Z,0.09
2022-11-24T00:57:01.343Z,0.10
2022-11-24T00:59:33.196Z,0.09
2022-11-24T01:02:05.073Z,0.11
2022-11-24T01:04:36.661Z,0.12
2022-11-24T01:07:11.591Z,0.13
2022-11-24T01:09:45.810Z,0.13
2022-11-24T01:12:17.182Z,0.11
2022-11-24T01:14:49.403Z,0.10
2022-11-24T01:17:21.167Z,0.12
2022-11-24T01:19:53.093Z,0.08
2022-11-24T01:22:26.770Z,0.09
2022-11-24T01:24:58.098Z,0.09
2022-11-24T01:27:29.554Z,0.08
2022-11-24T01:30:01.965Z,0.08
2022-11-24T01:32:36.489Z,0.08
2022-11-24T01:35:10.205Z,0.09
2022-11-24T01:37:41.474Z,0.06
2022-11-24T01:40:15.306Z,0.05
2022-11-24T01:42:53.834Z,0.07
2022-11-24T01:45:45.533Z,0.10
2022-11-24T01:51:15.238Z,0.14
2022-11-24T01:53:54.711Z,0.13
2022-11-24T01:56:27.127Z,0.15
2022-11-24T01:59:02.640Z,0.15
2022-11-24T02:01:35.286Z,0.12
2022-11-24T02:04:10.412Z,0.13
2022-11-24T02:06:45.200Z,0.15
2022-11-24T02:09:23.267Z,0.16
2022-11-24T02:11:55.311Z,0.18
2022-11-24T02:14:27.955Z,0.21
2022-11-24T02:17:00.450Z,0.24
2022-11-24T02:19:44.623Z,0.24
2022-11-24T02:22:21.535Z,0.25
2022-11-24T02:24:57.567Z,0.27
2022-11-24T02:27:29.520Z,0.28
2022-11-24T02:30:01.584Z,0.28
2022-11-24T02:32:35.201Z,0.26
2022-11-24T02:35:11.065Z,0.23
2022-11-24T02:37:42.394Z,0.18
2022-11-24T02:40:20.352Z,0.14
2022-11-24T02:42:53.880Z,0.11
2022-11-24T02:45:26.331Z,0.10
2022-11-24T02:47:57.577Z,0.12
2022-11-24T02:50:29.414Z,0.12
2022-11-24T02:53:02.376Z,0.14
2022-11-24T02:55:34.411Z,0.15
2022-11-24T02:58:05.687Z,0.16
2022-11-24T03:00:37.081Z,0.16
2022-11-24T03:03:08.721Z,0.14
2022-11-24T03:05:43.536Z,0.16
2022-11-24T03:08:14.841Z,0.19
2022-11-24T03:10:46.435Z,0.20
2022-11-24T03:13:17.939Z,0.21
2022-11-24T03:15:49.605Z,0.22
2022-11-24T03:18:21.195Z,0.24
2022-11-24T03:20:53.081Z,0.25
2022-11-24T03:23:25.182Z,0.28
2022-11-24T03:25:56.693Z,0.29
2022-11-24T03:28:28.675Z,0.29
2022-11-24T03:31:00.233Z,0.30
2022-11-24T03:33:31.628Z,0.31
2022-11-24T03:36:03.524Z,0.30
2022-11-24T03:38:40.620Z,0.31
2022-11-24T03:41:13.804Z,0.31
2022-11-24T03:43:45.134Z,0.32
2022-11-24T03:46:16.731Z,0.32
2022-11-24T03:48:50.033Z,0.31
2022-11-24T03:51:22.033Z,0.31
2022-11-24T03:53:53.461Z,0.30
2022-11-24T03:56:25.070Z,0.30
2022-11-24T03:58:57.341Z,0.30
2022-11-24T04:01:28.776Z,0.29
2022-11-24T04:04:00.449Z,0.26
2022-11-24T04:06:32.188Z,0.25
2022-11-24T04:09:04.507Z,0.23
2022-11-24T04:11:53.873Z,0.20
2022-11-24T04:14:25.239Z,0.19
2022-11-24T04:16:56.887Z,0.16
2022-11-24T04:19:28.896Z,0.13
2022-11-24T04:22:01.949Z,0.10
2022-11-24T04:24:33.818Z,0.07
2022-11-24T04:27:05.624Z,0.07
2022-11-24T04:29:36.870Z,0.07
2022-11-24T04:32:09.194Z,0.08
2022-11-24T04:34:40.419Z,0.10
2022-11-24T04:37:11.755Z,0.12
2022-11-24T04:39:45.400Z,0.15
2022-11-24T04:42:17.216Z,0.18
2022-11-24T04:44:52.275Z,0.20
2022-11-24T04:47:25.351Z,0.23
2022-11-24T04:49:57.153Z,0.23
2022-11-24T04:52:31.407Z,0.23
2022-11-24T04:55:03.532Z,0.23
2022-11-24T04:57:37.089Z,0.26
2022-11-24T05:00:15.084Z,0.27
2022-11-24T05:02:46.665Z,0.30
2022-11-24T05:05:18.579Z,0.32
2022-11-24T05:07:50.171Z,0.34
2022-11-24T05:10:37.894Z,0.36
2022-11-24T05:13:12.486Z,0.36
2022-11-24T05:15:44.114Z,0.37
2022-11-24T05:18:16.846Z,0.39
2022-11-24T05:20:52.099Z,0.39
2022-11-24T05:23:22.693Z,0.40
2022-11-24T05:25:54.573Z,0.41
2022-11-24T05:28:26.045Z,0.41
2022-11-24T05:30:59.880Z,0.42
2022-11-24T05:33:33.745Z,0.43
2022-11-24T05:36:31.353Z,0.44
2022-11-24T05:39:02.748Z,0.46
2022-11-24T05:41:33.944Z,0.46
2022-11-24T05:44:06.034Z,0.46
2022-11-24T05:46:37.547Z,0.45
2022-11-24T05:49:08.677Z,0.46
2022-11-24T05:51:40.237Z,0.46
2022-11-24T05:54:11.337Z,0.47
2022-11-24T05:56:42.283Z,0.48
2022-11-24T05:59:13.072Z,0.50
2022-11-24T06:01:43.936Z,0.52
2022-11-24T06:04:15.130Z,0.53
2022-11-24T06:06:47.267Z,0.55
2022-11-24T06:09:18.435Z,0.56
2022-11-24T06:11:49.995Z,0.57
2022-11-24T06:14:20.864Z,0.56
2022-11-24T06:16:51.699Z,0.56
2022-11-24T06:19:22.609Z,0.57
2022-11-24T06:21:53.965Z,0.58
2022-11-24T06:24:25.033Z,0.61
2022-11-24T06:26:55.886Z,0.63
2022-11-24T06:29:26.809Z,0.63
2022-11-24T06:31:57.682Z,0.64
2022-11-24T06:34:28.520Z,0.65
2022-11-24T06:36:59.419Z,0.66
2022-11-24T06:39:30.253Z,0.68
2022-11-24T06:42:01.129Z,0.69
2022-11-24T06:44:32.297Z,0.70
2022-11-24T06:47:03.345Z,0.69
2022-11-24T06:49:34.131Z,0.67
2022-11-24T06:52:14.258Z,0.67
2022-11-24T06:54:45.225Z,0.67
2022-11-24T06:57:20.472Z,0.66
2022-11-24T06:59:52.184Z,0.67
2022-11-24T07:02:23.037Z,0.67
2022-11-24T07:04:53.841Z,0.66
2022-11-24T07:07:24.897Z,0.66
2022-11-24T07:09:55.779Z,0.67
2022-11-24T07:12:29.367Z,0.66
2022-11-24T07:15:00.268Z,0.66
2022-11-24T07:17:31.084Z,0.67
2022-11-24T07:20:02.053Z,0.67
2022-11-24T07:22:32.978Z,0.69
2022-11-24T07:25:07.387Z,0.70
2022-11-24T07:27:38.353Z,0.69
2022-11-24T07:30:11.302Z,0.70
2022-11-24T07:32:42.206Z,0.69
2022-11-24T07:35:13.130Z,0.70
2022-11-24T07:37:43.940Z,0.70
2022-11-24T07:40:15.581Z,0.72
2022-11-24T07:42:46.386Z,0.75
2022-11-24T07:45:17.506Z,0.80
2022-11-24T07:47:48.407Z,0.82
2022-11-24T07:50:20.743Z,0.84
2022-11-24T07:52:51.632Z,0.86
2022-11-24T07:55:22.554Z,0.87
2022-11-24T07:57:53.351Z,0.90
2022-11-24T08:00:24.602Z,0.93
2022-11-24T08:02:55.925Z,0.94
2022-11-24T08:05:26.816Z,0.92
2022-11-24T08:08:00.577Z,0.91
2022-11-24T08:10:31.435Z,0.91
2022-11-24T08:13:04.234Z,0.92
2022-11-24T08:15:35.097Z,0.93
2022-11-24T08:18:06.250Z,0.93
2022-11-24T08:20:37.555Z,0.93
2022-11-24T08:23:09.038Z,0.94
2022-11-24T08:25:39.988Z,0.96
2022-11-24T08:28:10.892Z,0.99
2022-11-24T08:30:41.825Z,0.99
2022-11-24T08:33:12.898Z,1.00
2022-11-24T08:35:43.768Z,1.01
2022-11-24T08:38:17.273Z,1.02
2022-11-24T08:40:48.192Z,1.03
2022-11-24T08:43:19.012Z,1.05
2022-11-24T08:45:49.865Z,1.07
2022-11-24T08:48:20.813Z,1.09
2022-11-24T08:50:51.691Z,1.11
2022-11-24T08:53:22.576Z,1.13
2022-11-24T08:55:53.457Z,1.12
2022-11-24T08:58:24.229Z,1.13
2022-11-24T09:00:55.369Z,1.14
2022-11-24T09:03:26.398Z,1.17
2022-11-24T09:05:57.288Z,1.19
2022-11-24T09:08:28.073Z,1.23
2022-11-24T09:11:02.655Z,1.25
2022-11-24T09:13:33.500Z,1.26
2022-11-24T09:16:08.026Z,1.27
2022-11-24T09:18:39.284Z,1.27
2022-11-24T09:21:11.304Z,1.29
2022-11-24T09:23:42.618Z,1.31
2022-11-24T09:26:15.219Z,1.34
2022-11-24T09:28:47.037Z,1.38
2022-11-24T09:31:19.126Z,1.41
2022-11-24T09:33:49.976Z,1.43
2022-11-24T09:36:21.943Z,1.45
2022-11-24T09:38:52.987Z,1.49
2022-11-24T09:41:36.559Z,1.53
2022-11-24T09:44:34.183Z,1.56
2022-11-24T09:47:15.083Z,1.59
2022-11-24T09:49:57.360Z,1.57
2022-11-24T09:52:42.333Z,1.56
2022-11-24T09:55:28.738Z,1.55
2022-11-24T09:58:07.469Z,1.54
2022-11-24T10:00:40.314Z,1.54
2022-11-24T10:03:23.789Z,1.52
2022-11-24T10:05:55.314Z,1.53
2022-11-24T10:08:49.948Z,1.55
2022-11-24T10:11:36.466Z,1.58
2022-11-24T10:14:33.061Z,1.60
2022-11-24T10:17:13.368Z,1.63
2022-11-24T10:19:52.126Z,1.66
2022-11-24T10:22:37.047Z,1.71
2022-11-24T10:25:13.930Z,1.76
2022-11-24T10:27:47.881Z,1.82
2022-11-24T10:30:22.677Z,1.86
2022-11-24T10:32:59.633Z,1.88
2022-11-24T10:35:39.059Z,1.89
2022-11-24T10:38:25.359Z,1.90
2022-11-24T10:41:00.904Z,1.90
2022-11-24T10:43:31.944Z,1.90
2022-11-24T10:46:12.649Z,1.88
2022-11-24T10:48:49.305Z,1.87
2022-11-24T10:51:45.184Z,1.87
2022-11-24T10:54:19.829Z,1.87
2022-11-24T10:56:54.174Z,1.87
2022-11-24T10:59:47.195Z,1.89
2022-11-24T11:02:47.672Z,1.90
2022-11-24T11:05:43.011Z,1.91
2022-11-24T11:08:20.442Z,1.92
2022-11-24T11:11:11.367Z,1.93
2022-11-24T11:13:52.188Z,1.94
2022-11-24T11:16:33.896Z,1.92
2022-11-24T11:19:26.010Z,1.90
2022-11-24T11:22:05.356Z,1.87
2022-11-24T11:24:37.269Z,1.88
2022-11-24T11:27:20.793Z,1.87
2022-11-24T11:35:46.988Z,1.88
2022-11-24T11:38:18.347Z,1.89
2022-11-24T11:40:52.582Z,1.89
2022-11-24T11:43:28.784Z,1.90
2022-11-24T11:46:05.180Z,1.90
2022-11-24T11:48:43.635Z,1.91
2022-11-24T11:54:32.411Z,1.89
2022-11-24T11:57:12.221Z,1.88
2022-11-24T11:59:59.186Z,1.87
2022-11-24T12:03:06.324Z,1.84
2022-11-24T12:05:48.710Z,1.85
2022-11-24T12:08:49.501Z,1.86
2022-11-24T12:11:33.343Z,1.86
2022-11-24T12:14:18.611Z,1.86
2022-11-24T12:16:58.767Z,1.85
2022-11-24T12:19:51.399Z,1.84
2022-11-24T12:22:34.639Z,1.81
2022-11-24T12:25:24.110Z,1.82
2022-11-24T12:28:09.070Z,1.81
2022-11-24T12:30:51.900Z,1.82
2022-11-24T12:33:40.298Z,1.81
2022-11-24T12:36:25.972Z,1.74
2022-11-24T12:39:06.629Z,1.71
2022-11-24T12:41:56.774Z,1.69
2022-11-24T12:44:52.481Z,1.69
2022-11-24T12:47:35.132Z,1.74
2022-11-24T12:50:13.011Z,1.77
2022-11-24T12:52:52.891Z,1.79
2022-11-24T12:55:28.277Z,1.77
2022-11-24T12:58:10.998Z,1.76
2022-11-24T13:01:00.608Z,1.81
2022-11-24T13:03:45.953Z,1.84
2022-11-24T13:06:23.468Z,1.86
2022-11-24T13:08:55.034Z,1.86
2022-11-24T13:11:43.789Z,1.87
2022-11-24T13:14:24.674Z,1.88
2022-11-24T13:17:27.829Z,1.89
2022-11-24T13:19:50.608Z,1.91
2022-11-24T13:22:27.264Z,1.93
2022-11-24T13:25:17.492Z,1.92
2022-11-24T13:27:52.990Z,1.91
2022-11-24T13:30:59.741Z,1.90
2022-11-24T13:33:33.844Z,1.89
2022-11-24T13:36:54.218Z,1.89
2022-11-24T13:39:50.907Z,1.88
2022-11-24T13:42:41.587Z,1.87
2022-11-24T13:45:49.295Z,1.86
2022-11-24T13:48:51.213Z,1.86
2022-11-24T13:51:26.176Z,1.86
2022-11-24T13:54:01.092Z,1.88
2022-11-24T13:56:33.501Z,1.89
2022-11-24T13:59:19.460Z,1.93
2022-11-24T14:01:59.551Z,1.96
2022-11-24T14:04:43.200Z,1.97
2022-11-24T14:07:16.909Z,1.97
2022-11-24T14:09:50.972Z,1.99
2022-11-24T14:12:24.526Z,1.99
2022-11-24T14:15:14.231Z,1.99
2022-11-24T14:17:45.737Z,1.99
2022-11-24T14:20:25.893Z,1.96
2022-11-24T14:22:56.937Z,1.95
2022-11-24T14:25:32.058Z,1.93
2022-11-24T14:28:03.700Z,1.89
2022-11-24T14:30:34.636Z,1.85
2022-11-24T14:33:12.265Z,1.83
2022-11-24T14:35:48.477Z,1.80
2022-11-24T14:38:19.516Z,1.81
2022-11-24T14:40:52.453Z,1.79
2022-11-24T14:43:29.072Z,1.76
2022-11-24T14:46:03.615Z,1.74
2022-11-24T14:48:37.936Z,1.73
2022-11-24T14:51:15.454Z,1.71
2022-11-24T14:53:49.301Z,1.70
2022-11-24T14:56:28.221Z,1.67
2022-11-24T14:59:00.788Z,1.66
2022-11-24T15:01:36.302Z,1.67
2022-11-24T15:04:54.445Z,1.66
2022-11-24T15:07:22.653Z,1.65
2022-11-24T15:09:58.042Z,1.64
2022-11-24T15:12:34.501Z,1.62
2022-11-24T15:15:17.652Z,1.60
2022-11-24T15:17:51.732Z,1.59
2022-11-24T15:20:28.617Z,1.59
2022-11-24T15:23:24.844Z,1.57
2022-11-24T15:25:56.612Z,1.58
2022-11-24T15:28:27.883Z,1.60
2022-11-24T15:31:01.215Z,1.61
2022-11-24T15:33:32.888Z,1.63
2022-11-24T15:36:04.207Z,1.64
2022-11-24T15:38:35.221Z,1.66
2022-11-24T15:41:18.904Z,1.68
2022-11-24T15:43:49.889Z,1.70
2022-11-24T15:46:24.221Z,1.72
2022-11-24T15:48:55.728Z,1.72
2022-11-24T15:51:28.354Z,1.73
2022-11-24T15:54:01.408Z,1.72
2022-11-24T15:56:36.872Z,1.70
2022-11-24T15:59:18.561Z,1.70
2022-11-24T16:01:51.556Z,1.70
2022-11-24T16:04:22.500Z,1.70
2022-11-24T16:06:53.318Z,1.71
2022-11-24T16:09:24.402Z,1.71
2022-11-24T16:11:55.911Z,1.69
2022-11-24T16:14:26.849Z,1.70
2022-11-24T16:16:58.407Z,1.71
2022-11-24T16:19:29.302Z,1.71
2022-11-24T16:22:00.245Z,1.69
2022-11-24T16:24:31.305Z,1.68
2022-11-24T16:27:02.363Z,1.65
2022-11-24T16:29:38.199Z,1.66
2022-11-24T16:32:09.964Z,1.64
2022-11-24T16:34:40.802Z,1.64
2022-11-24T16:37:11.969Z,1.64
2022-11-24T16:39:49.686Z,1.63
2022-11-24T16:42:21.285Z,1.63
2022-11-24T16:44:52.886Z,1.64
2022-11-24T16:47:24.601Z,1.65
2022-11-24T16:49:56.385Z,1.65
2022-11-24T16:52:27.465Z,1.65
2022-11-24T16:54:58.804Z,1.64
2022-11-24T16:57:29.949Z,1.65
2022-11-24T17:00:00.930Z,1.66
2022-11-24T17:02:32.732Z,1.67
2022-11-24T17:05:03.738Z,1.67
2022-11-24T17:07:35.600Z,1.70
2022-11-24T17:10:08.028Z,1.75
2022-11-24T17:12:40.876Z,1.80
2022-11-24T17:20:58.010Z,1.86
2022-11-24T17:23:29.264Z,1.87
2022-11-24T17:26:06.022Z,1.89
2022-11-24T17:28:36.882Z,1.89
2022-11-24T17:31:15.610Z,1.88
2022-11-24T17:33:46.700Z,1.87
2022-11-24T17:36:17.792Z,1.87
2022-11-24T17:38:50.379Z,1.87
2022-11-24T17:41:22.098Z,1.90
2022-11-24T17:43:53.829Z,1.90
2022-11-24T17:46:25.222Z,1.91
2022-11-24T17:48:57.795Z,1.91
2022-11-24T17:51:29.298Z,1.92
2022-11-24T17:54:05.974Z,1.93
2022-11-24T17:56:49.993Z,1.94
2022-11-24T17:59:20.819Z,1.94
2022-11-24T18:01:52.275Z,1.94
2022-11-24T18:04:23.631Z,1.93
2022-11-24T18:06:54.687Z,1.93
2022-11-24T18:09:26.232Z,1.92
2022-11-24T18:11:57.169Z,1.91
2022-11-24T18:14:28.517Z,1.88
2022-11-24T18:16:59.546Z,1.85
2022-11-24T18:19:30.688Z,1.85
2022-11-24T18:22:01.869Z,1.83
2022-11-24T18:24:32.744Z,1.83
2022-11-24T18:27:03.800Z,1.83
2022-11-24T18:29:34.899Z,1.83
2022-11-24T18:32:06.166Z,1.83
2022-11-24T18:34:37.632Z,1.83
2022-11-24T18:37:09.101Z,1.82
2022-11-24T18:39:42.799Z,1.81
2022-11-24T18:42:19.805Z,1.81
2022-11-24T18:44:53.878Z,1.81
2022-11-24T18:47:25.571Z,1.82
2022-11-24T18:50:00.441Z,1.84
2022-11-24T18:52:31.749Z,1.84
2022-11-24T18:55:04.832Z,1.84
2022-11-24T18:57:36.488Z,1.86
2022-11-24T19:00:11.628Z,1.88
2022-11-24T19:02:42.796Z,1.88
2022-11-24T19:05:13.904Z,1.90
2022-11-24T19:07:47.156Z,1.92
2022-11-24T19:10:18.559Z,1.93
2022-11-24T19:12:49.388Z,1.94
2022-11-24T19:15:20.611Z,1.92
2022-11-24T19:17:55.145Z,1.92
2022-11-24T19:20:26.215Z,1.92
2022-11-24T19:22:58.347Z,1.93
2022-11-24T19:25:29.523Z,1.95
2022-11-24T19:28:00.615Z,1.97
2022-11-24T19:30:32.500Z,2.01
2022-11-24T19:33:03.612Z,2.05
2022-11-24T19:35:36.109Z,2.08
2022-11-24T19:38:08.241Z,2.08
2022-11-24T19:40:41.299Z,2.08
2022-11-24T19:43:12.377Z,2.09
2022-11-24T19:45:44.517Z,2.10
2022-11-24T19:48:18.850Z,2.12
2022-11-24T19:51:03.591Z,2.14
2022-11-24T19:53:34.821Z,2.16
2022-11-24T19:56:10.586Z,2.16
2022-11-24T19:58:43.567Z,2.18
2022-11-24T20:01:16.807Z,2.18
2022-11-24T20:03:50.755Z,2.17
2022-11-24T20:06:21.802Z,2.16
2022-11-24T20:08:52.877Z,2.18
2022-11-24T20:11:28.054Z,2.17
2022-11-24T20:14:00.291Z,2.18
2022-11-24T20:16:33.173Z,2.17
2022-11-24T20:19:17.663Z,2.15
2022-11-24T20:21:50.327Z,2.14
2022-11-24T20:24:24.648Z,2.14
2022-11-24T20:26:59.083Z,2.14
2022-11-24T20:29:32.234Z,2.13
2022-11-24T20:32:03.264Z,2.11
2022-11-24T20:34:34.728Z,2.10
2022-11-24T20:37:13.269Z,2.08
2022-11-24T20:39:44.390Z,2.08
2022-11-24T20:42:15.537Z,2.06
2022-11-24T20:44:46.701Z,2.05
2022-11-24T20:47:17.847Z,2.04
2022-11-24T20:49:49.796Z,2.01
2022-11-24T20:52:20.668Z,1.98
2022-11-24T20:54:51.589Z,1.97
2022-11-24T20:57:22.771Z,1.96
2022-11-24T20:59:53.562Z,1.95
2022-11-24T21:02:25.986Z,1.93
2022-11-24T21:04:57.161Z,1.92
2022-11-24T21:07:28.489Z,1.89
2022-11-24T21:09:59.539Z,1.88
2022-11-24T21:12:30.650Z,1.87
2022-11-24T21:15:01.775Z,1.88
2022-11-24T21:17:34.220Z,1.88
2022-11-24T21:20:05.657Z,1.87
2022-11-24T21:22:38.997Z,1.86
2022-11-24T21:25:11.378Z,1.84
2022-11-24T21:27:42.806Z,1.83
2022-11-24T21:30:15.422Z,1.81
2022-11-24T21:32:46.661Z,1.80
2022-11-24T21:35:17.884Z,1.80
2022-11-24T21:37:48.800Z,1.79
2022-11-24T21:40:20.108Z,1.78
2022-11-24T21:42:51.147Z,1.79
2022-11-24T21:45:22.057Z,1.81
2022-11-24T21:47:53.104Z,1.82
2022-11-24T21:50:24.344Z,1.83
2022-11-24T21:52:58.118Z,1.85
2022-11-24T21:55:33.231Z,1.86
2022-11-24T21:58:07.038Z,1.85
2022-11-24T22:00:38.085Z,1.85
2022-11-24T22:03:09.130Z,1.86
2022-11-24T22:05:39.990Z,1.86
2022-11-24T22:08:11.150Z,1.86
2022-11-24T22:10:41.935Z,1.86
2022-11-24T22:13:12.791Z,1.85
2022-11-24T22:15:43.723Z,1.85
2022-11-24T22:18:14.806Z,1.82
2022-11-24T22:20:57.496Z,1.80
2022-11-24T22:23:28.679Z,1.79
2022-11-24T22:26:02.894Z,1.76
2022-11-24T22:28:35.611Z,1.73
2022-11-24T22:31:11.436Z,1.72
2022-11-24T22:33:44.084Z,1.72
2022-11-24T22:36:16.670Z,1.72
2022-11-24T22:38:48.147Z,1.72
2022-11-24T22:41:20.042Z,1.70
2022-11-24T22:43:51.496Z,1.69
2022-11-24T22:46:27.138Z,1.68
2022-11-24T22:48:59.508Z,1.69
2022-11-24T22:51:32.599Z,1.71
2022-11-24T22:54:05.080Z,1.74
2022-11-24T22:56:36.862Z,1.76
2022-11-24T22:59:07.871Z,1.79
2022-11-24T23:01:39.314Z,1.80
2022-11-24T23:04:10.694Z,1.83
2022-11-24T23:06:42.193Z,1.83
2022-11-24T23:09:16.747Z,1.82
2022-11-24T23:11:48.536Z,1.80
2022-11-24T23:14:20.066Z,1.79
2022-11-24T23:16:52.392Z,1.79
2022-11-24T23:19:23.739Z,1.79
2022-11-24T23:21:54.924Z,1.81
2022-11-24T23:24:28.118Z,1.83
2022-11-24T23:26:59.674Z,1.83
2022-11-24T23:29:30.808Z,1.84
2022-11-24T23:32:01.976Z,1.84
2022-11-24T23:34:33.173Z,1.84
2022-11-24T23:37:04.554Z,1.83
2022-11-24T23:39:35.544Z,1.84
2022-11-24T23:42:06.736Z,1.83
2022-11-24T23:44:37.869Z,1.83
2022-11-24T23:47:08.955Z,1.85
2022-11-24T23:49:39.725Z,1.85
2022-11-24T23:52:10.697Z,1.85
2022-11-24T23:54:41.525Z,1.86
2022-11-24T23:57:12.309Z,1.86
2022-11-24T23:59:43.157Z,1.87
